sensor_id;sensor_type;location;lat;lon;timestamp;P1;durP1;ratioP1;P2;durP2;ratioP2
37895;SDS011;23733;53.254;10.430;2023-04-25T00:01:46;9.10;;;4.60;;
37895;SDS011;23733;53.254;10.430;2023-04-25T00:04:12;8.03;;;4.20;;
37895;SDS011;23733;53.254;10.430;2023-04-25T00:06:38;6.83;;;4.97;;
37895;SDS011;23733;53.254;10.430;2023-04-25T00:09:05;7.83;;;4.40;;
37895;SDS011;23733;53.254;10.430;2023-04-25T00:11:34;6.27;;;3.90;;
37895;SDS011;23733;53.254;10.430;2023-04-25T00:14:00;9.50;;;4.67;;
37895;SDS011;23733;53.254;10.430;2023-04-25T00:16:28;9.10;;;4.70;;
37895;SDS011;23733;53.254;10.430;2023-04-25T00:18:55;7.40;;;4.80;;
37895;SDS011;23733;53.254;10.430;2023-04-25T00:21:22;5.87;;;4.43;;
37895;SDS011;23733;53.254;10.430;2023-04-25T00:23:49;7.80;;;3.90;;
37895;SDS011;23733;53.254;10.430;2023-04-25T00:26:15;10.07;;;4.63;;
37895;SDS011;23733;53.254;10.430;2023-04-25T00:28:41;6.00;;;4.70;;
37895;SDS011;23733;53.254;10.430;2023-04-25T00:31:07;12.00;;;4.53;;
37895;SDS011;23733;53.254;10.430;2023-04-25T00:33:33;9.90;;;5.07;;
37895;SDS011;23733;53.254;10.430;2023-04-25T00:36:00;7.23;;;4.33;;
37895;SDS011;23733;53.254;10.430;2023-04-25T00:38:26;8.80;;;4.67;;
37895;SDS011;23733;53.254;10.430;2023-04-25T00:40:52;7.27;;;4.60;;
37895;SDS011;23733;53.254;10.430;2023-04-25T00:43:18;6.90;;;4.43;;
37895;SDS011;23733;53.254;10.430;2023-04-25T00:45:44;6.50;;;4.70;;
37895;SDS011;23733;53.254;10.430;2023-04-25T00:48:13;9.47;;;5.03;;
37895;SDS011;23733;53.254;10.430;2023-04-25T00:50:39;9.47;;;5.10;;
37895;SDS011;23733;53.254;10.430;2023-04-25T00:53:06;12.50;;;5.03;;
37895;SDS011;23733;53.254;10.430;2023-04-25T00:55:32;7.20;;;4.97;;
37895;SDS011;23733;53.254;10.430;2023-04-25T00:58:00;11.37;;;5.20;;
37895;SDS011;23733;53.254;10.430;2023-04-25T01:00:26;10.67;;;5.40;;
37895;SDS011;23733;53.254;10.430;2023-04-25T01:02:52;9.23;;;5.27;;
37895;SDS011;23733;53.254;10.430;2023-04-25T01:05:18;10.37;;;5.70;;
37895;SDS011;23733;53.254;10.430;2023-04-25T01:07:44;9.23;;;5.50;;
37895;SDS011;23733;53.254;10.430;2023-04-25T01:10:11;7.37;;;5.10;;
37895;SDS011;23733;53.254;10.430;2023-04-25T01:12:37;10.43;;;5.53;;
37895;SDS011;23733;53.254;10.430;2023-04-25T01:15:03;9.17;;;5.77;;
37895;SDS011;23733;53.254;10.430;2023-04-25T01:17:29;11.23;;;5.97;;
37895;SDS011;23733;53.254;10.430;2023-04-25T01:19:56;8.33;;;5.23;;
37895;SDS011;23733;53.254;10.430;2023-04-25T01:22:22;7.63;;;4.50;;
37895;SDS011;23733;53.254;10.430;2023-04-25T01:24:48;6.43;;;4.27;;
37895;SDS011;23733;53.254;10.430;2023-04-25T01:27:15;8.23;;;4.37;;
37895;SDS011;23733;53.254;10.430;2023-04-25T01:29:41;6.77;;;4.07;;
37895;SDS011;23733;53.254;10.430;2023-04-25T01:32:07;8.93;;;4.00;;
37895;SDS011;23733;53.254;10.430;2023-04-25T01:34:34;7.57;;;3.17;;
37895;SDS011;23733;53.254;10.430;2023-04-25T01:37:00;12.10;;;3.97;;
37895;SDS011;23733;53.254;10.430;2023-04-25T01:39:27;13.00;;;3.90;;
37895;SDS011;23733;53.254;10.430;2023-04-25T01:41:53;8.37;;;3.73;;
37895;SDS011;23733;53.254;10.430;2023-04-25T01:44:19;10.87;;;3.63;;
37895;SDS011;23733;53.254;10.430;2023-04-25T01:46:46;8.83;;;3.40;;
37895;SDS011;23733;53.254;10.430;2023-04-25T01:49:12;15.20;;;3.37;;
37895;SDS011;23733;53.254;10.430;2023-04-25T01:51:38;10.57;;;3.43;;
37895;SDS011;23733;53.254;10.430;2023-04-25T01:54:04;11.07;;;3.30;;
37895;SDS011;23733;53.254;10.430;2023-04-25T01:56:34;16.23;;;3.90;;
37895;SDS011;23733;53.254;10.430;2023-04-25T01:59:03;12.83;;;3.97;;
37895;SDS011;23733;53.254;10.430;2023-04-25T02:01:30;18.33;;;3.80;;
37895;SDS011;23733;53.254;10.430;2023-04-25T02:03:56;13.53;;;2.90;;
37895;SDS011;23733;53.254;10.430;2023-04-25T02:06:22;12.97;;;3.33;;
37895;SDS011;23733;53.254;10.430;2023-04-25T02:08:48;16.33;;;3.63;;
37895;SDS011;23733;53.254;10.430;2023-04-25T02:11:14;14.00;;;3.67;;
37895;SDS011;23733;53.254;10.430;2023-04-25T02:13:40;13.73;;;3.37;;
37895;SDS011;23733;53.254;10.430;2023-04-25T02:16:06;12.80;;;3.50;;
37895;SDS011;23733;53.254;10.430;2023-04-25T02:18:32;15.00;;;4.10;;
37895;SDS011;23733;53.254;10.430;2023-04-25T02:20:59;20.03;;;4.70;;
37895;SDS011;23733;53.254;10.430;2023-04-25T02:23:26;19.13;;;3.67;;
37895;SDS011;23733;53.254;10.430;2023-04-25T02:25:53;20.43;;;4.20;;
37895;SDS011;23733;53.254;10.430;2023-04-25T02:28:20;18.37;;;3.67;;
37895;SDS011;23733;53.254;10.430;2023-04-25T02:30:46;15.23;;;3.83;;
37895;SDS011;23733;53.254;10.430;2023-04-25T02:33:12;17.30;;;4.00;;
37895;SDS011;23733;53.254;10.430;2023-04-25T02:35:38;13.63;;;3.43;;
37895;SDS011;23733;53.254;10.430;2023-04-25T02:38:04;17.10;;;3.40;;
37895;SDS011;23733;53.254;10.430;2023-04-25T02:40:30;17.97;;;4.80;;
37895;SDS011;23733;53.254;10.430;2023-04-25T02:42:56;23.43;;;4.90;;
37895;SDS011;23733;53.254;10.430;2023-04-25T02:45:22;22.37;;;4.40;;
37895;SDS011;23733;53.254;10.430;2023-04-25T02:47:48;12.90;;;3.27;;
37895;SDS011;23733;53.254;10.430;2023-04-25T02:50:14;18.40;;;4.43;;
37895;SDS011;23733;53.254;10.430;2023-04-25T02:52:40;20.70;;;4.07;;
37895;SDS011;23733;53.254;10.430;2023-04-25T02:55:06;18.80;;;3.97;;
37895;SDS011;23733;53.254;10.430;2023-04-25T02:57:33;22.30;;;3.93;;
37895;SDS011;23733;53.254;10.430;2023-04-25T02:59:59;18.60;;;4.87;;
37895;SDS011;23733;53.254;10.430;2023-04-25T03:02:25;20.67;;;4.30;;
37895;SDS011;23733;53.254;10.430;2023-04-25T03:04:51;18.20;;;4.50;;
37895;SDS011;23733;53.254;10.430;2023-04-25T03:07:17;17.57;;;3.80;;
37895;SDS011;23733;53.254;10.430;2023-04-25T03:09:43;29.80;;;4.60;;
37895;SDS011;23733;53.254;10.430;2023-04-25T03:12:09;17.37;;;4.00;;
37895;SDS011;23733;53.254;10.430;2023-04-25T03:14:35;20.37;;;4.40;;
37895;SDS011;23733;53.254;10.430;2023-04-25T03:17:01;19.23;;;3.90;;
37895;SDS011;23733;53.254;10.430;2023-04-25T03:19:27;16.33;;;4.20;;
37895;SDS011;23733;53.254;10.430;2023-04-25T03:21:53;20.53;;;3.93;;
37895;SDS011;23733;53.254;10.430;2023-04-25T03:24:19;23.50;;;4.77;;
37895;SDS011;23733;53.254;10.430;2023-04-25T03:26:46;18.50;;;3.47;;
37895;SDS011;23733;53.254;10.430;2023-04-25T03:29:12;24.67;;;4.43;;
37895;SDS011;23733;53.254;10.430;2023-04-25T03:31:37;22.73;;;3.93;;
37895;SDS011;23733;53.254;10.430;2023-04-25T03:34:03;20.87;;;4.17;;
37895;SDS011;23733;53.254;10.430;2023-04-25T03:36:30;20.90;;;4.50;;
37895;SDS011;23733;53.254;10.430;2023-04-25T03:38:56;27.37;;;4.57;;
37895;SDS011;23733;53.254;10.430;2023-04-25T03:41:22;22.27;;;4.40;;
37895;SDS011;23733;53.254;10.430;2023-04-25T03:43:48;21.80;;;4.40;;
37895;SDS011;23733;53.254;10.430;2023-04-25T03:46:13;16.37;;;3.63;;
37895;SDS011;23733;53.254;10.430;2023-04-25T03:48:39;26.40;;;4.63;;
37895;SDS011;23733;53.254;10.430;2023-04-25T03:51:05;17.97;;;4.50;;
37895;SDS011;23733;53.254;10.430;2023-04-25T03:53:31;21.67;;;4.63;;
37895;SDS011;23733;53.254;10.430;2023-04-25T03:55:57;17.20;;;4.13;;
37895;SDS011;23733;53.254;10.430;2023-04-25T03:58:23;21.30;;;4.30;;
37895;SDS011;23733;53.254;10.430;2023-04-25T04:00:49;24.37;;;3.87;;
37895;SDS011;23733;53.254;10.430;2023-04-25T04:03:15;18.53;;;3.83;;
37895;SDS011;23733;53.254;10.430;2023-04-25T04:05:41;21.30;;;4.33;;
37895;SDS011;23733;53.254;10.430;2023-04-25T04:08:07;24.07;;;5.20;;
37895;SDS011;23733;53.254;10.430;2023-04-25T04:10:33;15.87;;;3.90;;
37895;SDS011;23733;53.254;10.430;2023-04-25T04:13:00;19.03;;;4.83;;
37895;SDS011;23733;53.254;10.430;2023-04-25T04:15:26;18.23;;;4.30;;
37895;SDS011;23733;53.254;10.430;2023-04-25T04:17:52;28.80;;;4.70;;
37895;SDS011;23733;53.254;10.430;2023-04-25T04:20:19;23.13;;;4.63;;
37895;SDS011;23733;53.254;10.430;2023-04-25T04:22:45;25.90;;;4.43;;
37895;SDS011;23733;53.254;10.430;2023-04-25T04:25:11;20.53;;;4.20;;
37895;SDS011;23733;53.254;10.430;2023-04-25T04:27:37;20.70;;;3.97;;
37895;SDS011;23733;53.254;10.430;2023-04-25T04:30:04;18.73;;;4.47;;
37895;SDS011;23733;53.254;10.430;2023-04-25T04:32:32;19.40;;;4.73;;
37895;SDS011;23733;53.254;10.430;2023-04-25T04:34:59;18.63;;;3.60;;
37895;SDS011;23733;53.254;10.430;2023-04-25T04:37:25;18.97;;;4.37;;
37895;SDS011;23733;53.254;10.430;2023-04-25T04:39:51;24.70;;;5.27;;
37895;SDS011;23733;53.254;10.430;2023-04-25T04:42:17;26.30;;;4.20;;
37895;SDS011;23733;53.254;10.430;2023-04-25T04:44:43;19.13;;;4.10;;
37895;SDS011;23733;53.254;10.430;2023-04-25T04:47:10;19.97;;;4.00;;
37895;SDS011;23733;53.254;10.430;2023-04-25T04:49:36;22.13;;;4.33;;
37895;SDS011;23733;53.254;10.430;2023-04-25T04:52:02;22.30;;;3.90;;
37895;SDS011;23733;53.254;10.430;2023-04-25T04:54:28;16.73;;;4.00;;
37895;SDS011;23733;53.254;10.430;2023-04-25T04:56:54;16.20;;;4.47;;
37895;SDS011;23733;53.254;10.430;2023-04-25T04:59:20;18.57;;;3.60;;
37895;SDS011;23733;53.254;10.430;2023-04-25T05:01:46;17.87;;;4.37;;
37895;SDS011;23733;53.254;10.430;2023-04-25T05:04:12;19.67;;;4.10;;
37895;SDS011;23733;53.254;10.430;2023-04-25T05:06:38;17.70;;;3.50;;
37895;SDS011;23733;53.254;10.430;2023-04-25T05:09:04;15.77;;;3.20;;
37895;SDS011;23733;53.254;10.430;2023-04-25T05:11:30;20.70;;;4.43;;
37895;SDS011;23733;53.254;10.430;2023-04-25T05:13:56;19.33;;;3.83;;
37895;SDS011;23733;53.254;10.430;2023-04-25T05:16:22;19.30;;;3.43;;
37895;SDS011;23733;53.254;10.430;2023-04-25T05:18:48;20.43;;;3.87;;
37895;SDS011;23733;53.254;10.430;2023-04-25T05:21:14;11.83;;;3.43;;
37895;SDS011;23733;53.254;10.430;2023-04-25T05:23:40;18.10;;;3.07;;
37895;SDS011;23733;53.254;10.430;2023-04-25T05:26:06;17.17;;;3.40;;
37895;SDS011;23733;53.254;10.430;2023-04-25T05:28:39;20.20;;;3.57;;
37895;SDS011;23733;53.254;10.430;2023-04-25T05:31:06;19.83;;;4.77;;
37895;SDS011;23733;53.254;10.430;2023-04-25T05:33:32;20.20;;;3.50;;
37895;SDS011;23733;53.254;10.430;2023-04-25T05:35:58;19.40;;;3.57;;
37895;SDS011;23733;53.254;10.430;2023-04-25T05:38:25;22.43;;;3.90;;
37895;SDS011;23733;53.254;10.430;2023-04-25T05:40:51;13.70;;;3.20;;
37895;SDS011;23733;53.254;10.430;2023-04-25T05:43:17;17.73;;;3.53;;
37895;SDS011;23733;53.254;10.430;2023-04-25T05:45:43;16.73;;;3.80;;
37895;SDS011;23733;53.254;10.430;2023-04-25T05:48:09;20.47;;;3.63;;
37895;SDS011;23733;53.254;10.430;2023-04-25T05:50:35;21.93;;;3.50;;
37895;SDS011;23733;53.254;10.430;2023-04-25T05:53:01;17.90;;;4.10;;
37895;SDS011;23733;53.254;10.430;2023-04-25T05:55:28;17.23;;;3.60;;
37895;SDS011;23733;53.254;10.430;2023-04-25T05:57:54;19.73;;;4.00;;
37895;SDS011;23733;53.254;10.430;2023-04-25T06:00:20;15.77;;;3.40;;
37895;SDS011;23733;53.254;10.430;2023-04-25T06:02:48;20.30;;;4.17;;
37895;SDS011;23733;53.254;10.430;2023-04-25T06:05:14;20.90;;;3.80;;
37895;SDS011;23733;53.254;10.430;2023-04-25T06:07:40;11.83;;;2.60;;
37895;SDS011;23733;53.254;10.430;2023-04-25T06:10:06;14.83;;;3.07;;
37895;SDS011;23733;53.254;10.430;2023-04-25T06:12:33;14.03;;;3.30;;
37895;SDS011;23733;53.254;10.430;2023-04-25T06:14:59;20.20;;;3.47;;
37895;SDS011;23733;53.254;10.430;2023-04-25T06:17:25;16.47;;;3.97;;
37895;SDS011;23733;53.254;10.430;2023-04-25T06:19:51;11.93;;;3.07;;
37895;SDS011;23733;53.254;10.430;2023-04-25T06:22:18;14.80;;;2.90;;
37895;SDS011;23733;53.254;10.430;2023-04-25T06:24:44;17.20;;;3.03;;
37895;SDS011;23733;53.254;10.430;2023-04-25T06:27:11;15.50;;;2.90;;
37895;SDS011;23733;53.254;10.430;2023-04-25T06:29:37;15.43;;;3.30;;
37895;SDS011;23733;53.254;10.430;2023-04-25T06:32:03;20.60;;;3.80;;
37895;SDS011;23733;53.254;10.430;2023-04-25T06:34:29;15.87;;;2.87;;
37895;SDS011;23733;53.254;10.430;2023-04-25T06:36:55;16.33;;;3.37;;
37895;SDS011;23733;53.254;10.430;2023-04-25T06:39:21;19.13;;;3.47;;
37895;SDS011;23733;53.254;10.430;2023-04-25T06:41:48;9.97;;;2.70;;
37895;SDS011;23733;53.254;10.430;2023-04-25T06:44:15;17.03;;;3.50;;
37895;SDS011;23733;53.254;10.430;2023-04-25T06:46:41;15.90;;;3.67;;
37895;SDS011;23733;53.254;10.430;2023-04-25T06:49:07;17.47;;;3.17;;
37895;SDS011;23733;53.254;10.430;2023-04-25T06:51:33;13.47;;;2.93;;
37895;SDS011;23733;53.254;10.430;2023-04-25T06:53:59;12.70;;;2.90;;
37895;SDS011;23733;53.254;10.430;2023-04-25T06:56:25;18.43;;;3.27;;
37895;SDS011;23733;53.254;10.430;2023-04-25T06:58:51;13.90;;;2.70;;
37895;SDS011;23733;53.254;10.430;2023-04-25T07:01:17;15.17;;;3.10;;
37895;SDS011;23733;53.254;10.430;2023-04-25T07:03:43;16.90;;;3.03;;
37895;SDS011;23733;53.254;10.430;2023-04-25T07:06:09;16.97;;;3.50;;
37895;SDS011;23733;53.254;10.430;2023-04-25T07:08:35;14.53;;;2.93;;
37895;SDS011;23733;53.254;10.430;2023-04-25T07:11:01;9.63;;;2.80;;
37895;SDS011;23733;53.254;10.430;2023-04-25T07:13:27;13.33;;;2.77;;
37895;SDS011;23733;53.254;10.430;2023-04-25T07:15:53;13.13;;;2.90;;
37895;SDS011;23733;53.254;10.430;2023-04-25T07:18:19;14.13;;;2.80;;
37895;SDS011;23733;53.254;10.430;2023-04-25T07:20:45;13.60;;;2.90;;
37895;SDS011;23733;53.254;10.430;2023-04-25T07:23:11;11.07;;;3.20;;
37895;SDS011;23733;53.254;10.430;2023-04-25T07:25:37;20.93;;;3.07;;
37895;SDS011;23733;53.254;10.430;2023-04-25T07:28:03;16.17;;;3.43;;
37895;SDS011;23733;53.254;10.430;2023-04-25T07:30:30;14.67;;;3.40;;
37895;SDS011;23733;53.254;10.430;2023-04-25T07:32:56;12.50;;;2.83;;
37895;SDS011;23733;53.254;10.430;2023-04-25T07:35:22;14.87;;;2.70;;
37895;SDS011;23733;53.254;10.430;2023-04-25T07:37:48;14.87;;;3.10;;
37895;SDS011;23733;53.254;10.430;2023-04-25T07:40:14;16.53;;;3.27;;
37895;SDS011;23733;53.254;10.430;2023-04-25T07:42:43;17.50;;;2.97;;
37895;SDS011;23733;53.254;10.430;2023-04-25T07:45:09;14.70;;;3.20;;
37895;SDS011;23733;53.254;10.430;2023-04-25T07:47:36;11.77;;;3.37;;
37895;SDS011;23733;53.254;10.430;2023-04-25T07:50:02;14.37;;;3.00;;
37895;SDS011;23733;53.254;10.430;2023-04-25T07:52:29;12.43;;;3.47;;
37895;SDS011;23733;53.254;10.430;2023-04-25T07:54:55;11.57;;;2.93;;
37895;SDS011;23733;53.254;10.430;2023-04-25T07:57:21;12.23;;;2.67;;
37895;SDS011;23733;53.254;10.430;2023-04-25T07:59:47;11.87;;;3.10;;
37895;SDS011;23733;53.254;10.430;2023-04-25T08:02:13;11.50;;;2.80;;
37895;SDS011;23733;53.254;10.430;2023-04-25T08:04:39;12.30;;;2.67;;
37895;SDS011;23733;53.254;10.430;2023-04-25T08:07:05;8.90;;;2.20;;
37895;SDS011;23733;53.254;10.430;2023-04-25T08:09:31;11.53;;;2.37;;
37895;SDS011;23733;53.254;10.430;2023-04-25T08:12:00;9.10;;;2.00;;
37895;SDS011;23733;53.254;10.430;2023-04-25T08:14:27;9.27;;;2.37;;
37895;SDS011;23733;53.254;10.430;2023-04-25T08:16:56;7.37;;;1.90;;
37895;SDS011;23733;53.254;10.430;2023-04-25T08:19:22;13.20;;;2.77;;
37895;SDS011;23733;53.254;10.430;2023-04-25T08:21:48;12.70;;;2.67;;
37895;SDS011;23733;53.254;10.430;2023-04-25T08:24:16;10.67;;;2.47;;
37895;SDS011;23733;53.254;10.430;2023-04-25T08:26:42;12.73;;;2.73;;
37895;SDS011;23733;53.254;10.430;2023-04-25T08:29:08;13.00;;;2.40;;
37895;SDS011;23733;53.254;10.430;2023-04-25T08:31:34;10.53;;;2.27;;
37895;SDS011;23733;53.254;10.430;2023-04-25T08:34:00;9.67;;;2.43;;
37895;SDS011;23733;53.254;10.430;2023-04-25T08:36:26;8.63;;;2.27;;
37895;SDS011;23733;53.254;10.430;2023-04-25T08:38:53;11.00;;;2.33;;
37895;SDS011;23733;53.254;10.430;2023-04-25T08:41:19;8.50;;;2.40;;
37895;SDS011;23733;53.254;10.430;2023-04-25T08:43:48;7.33;;;2.10;;
37895;SDS011;23733;53.254;10.430;2023-04-25T08:46:17;7.43;;;1.97;;
37895;SDS011;23733;53.254;10.430;2023-04-25T08:48:44;7.97;;;2.10;;
37895;SDS011;23733;53.254;10.430;2023-04-25T08:51:14;9.53;;;2.00;;
37895;SDS011;23733;53.254;10.430;2023-04-25T08:53:49;6.70;;;2.20;;
37895;SDS011;23733;53.254;10.430;2023-04-25T08:56:17;7.57;;;2.00;;
37895;SDS011;23733;53.254;10.430;2023-04-25T08:58:47;8.43;;;1.70;;
37895;SDS011;23733;53.254;10.430;2023-04-25T09:01:13;7.07;;;1.97;;
37895;SDS011;23733;53.254;10.430;2023-04-25T09:03:39;8.77;;;2.10;;
37895;SDS011;23733;53.254;10.430;2023-04-25T09:06:06;12.70;;;2.47;;
37895;SDS011;23733;53.254;10.430;2023-04-25T09:08:33;12.53;;;2.27;;
37895;SDS011;23733;53.254;10.430;2023-04-25T09:11:02;6.70;;;2.00;;
37895;SDS011;23733;53.254;10.430;2023-04-25T09:13:28;10.13;;;2.73;;
37895;SDS011;23733;53.254;10.430;2023-04-25T09:15:55;10.67;;;1.80;;
37895;SDS011;23733;53.254;10.430;2023-04-25T09:18:23;9.40;;;2.00;;
37895;SDS011;23733;53.254;10.430;2023-04-25T09:20:51;9.17;;;2.00;;
37895;SDS011;23733;53.254;10.430;2023-04-25T09:23:21;6.83;;;1.90;;
37895;SDS011;23733;53.254;10.430;2023-04-25T09:25:52;8.60;;;2.20;;
37895;SDS011;23733;53.254;10.430;2023-04-25T09:28:22;9.00;;;1.93;;
37895;SDS011;23733;53.254;10.430;2023-04-25T09:30:53;7.90;;;2.10;;
37895;SDS011;23733;53.254;10.430;2023-04-25T09:33:23;11.03;;;2.30;;
37895;SDS011;23733;53.254;10.430;2023-04-25T09:35:54;9.97;;;2.00;;
37895;SDS011;23733;53.254;10.430;2023-04-25T09:38:27;8.93;;;2.10;;
37895;SDS011;23733;53.254;10.430;2023-04-25T09:40:55;5.97;;;1.93;;
37895;SDS011;23733;53.254;10.430;2023-04-25T09:43:22;6.47;;;1.70;;
37895;SDS011;23733;53.254;10.430;2023-04-25T09:45:50;5.37;;;1.40;;
37895;SDS011;23733;53.254;10.430;2023-04-25T09:48:21;4.50;;;1.23;;
37895;SDS011;23733;53.254;10.430;2023-04-25T09:51:04;11.00;;;2.10;;
37895;SDS011;23733;53.254;10.430;2023-04-25T09:53:42;7.23;;;1.83;;
37895;SDS011;23733;53.254;10.430;2023-04-25T09:56:12;8.00;;;1.93;;
37895;SDS011;23733;53.254;10.430;2023-04-25T09:58:39;8.77;;;1.53;;
37895;SDS011;23733;53.254;10.430;2023-04-25T10:01:06;4.43;;;1.27;;
37895;SDS011;23733;53.254;10.430;2023-04-25T10:03:33;3.40;;;1.10;;
37895;SDS011;23733;53.254;10.430;2023-04-25T10:06:01;5.87;;;1.10;;
37895;SDS011;23733;53.254;10.430;2023-04-25T10:08:31;4.00;;;1.27;;
37895;SDS011;23733;53.254;10.430;2023-04-25T10:11:06;7.33;;;1.37;;
37895;SDS011;23733;53.254;10.430;2023-04-25T10:13:33;4.70;;;1.50;;
37895;SDS011;23733;53.254;10.430;2023-04-25T10:16:02;3.23;;;1.10;;
37895;SDS011;23733;53.254;10.430;2023-04-25T10:18:29;4.37;;;1.47;;
37895;SDS011;23733;53.254;10.430;2023-04-25T10:20:56;2.60;;;0.80;;
37895;SDS011;23733;53.254;10.430;2023-04-25T10:23:25;3.63;;;1.10;;
37895;SDS011;23733;53.254;10.430;2023-04-25T10:25:52;3.87;;;1.23;;
37895;SDS011;23733;53.254;10.430;2023-04-25T10:28:19;5.33;;;1.30;;
37895;SDS011;23733;53.254;10.430;2023-04-25T10:31:01;6.37;;;1.50;;
37895;SDS011;23733;53.254;10.430;2023-04-25T10:33:29;6.37;;;1.53;;
37895;SDS011;23733;53.254;10.430;2023-04-25T10:36:12;4.07;;;1.17;;
37895;SDS011;23733;53.254;10.430;2023-04-25T10:38:39;4.53;;;1.40;;
37895;SDS011;23733;53.254;10.430;2023-04-25T10:41:06;3.07;;;1.13;;
37895;SDS011;23733;53.254;10.430;2023-04-25T10:43:35;5.67;;;1.80;;
37895;SDS011;23733;53.254;10.430;2023-04-25T10:46:16;4.70;;;1.40;;
37895;SDS011;23733;53.254;10.430;2023-04-25T10:48:46;5.43;;;1.53;;
37895;SDS011;23733;53.254;10.430;2023-04-25T10:51:17;7.43;;;2.00;;
37895;SDS011;23733;53.254;10.430;2023-04-25T10:56:33;8.63;;;1.93;;
37895;SDS011;23733;53.254;10.430;2023-04-25T10:59:06;5.30;;;1.57;;
37895;SDS011;23733;53.254;10.430;2023-04-25T11:04:04;6.27;;;1.90;;
37895;SDS011;23733;53.254;10.430;2023-04-25T11:09:34;7.27;;;1.47;;
37895;SDS011;23733;53.254;10.430;2023-04-25T11:12:03;4.00;;;1.23;;
37895;SDS011;23733;53.254;10.430;2023-04-25T11:14:30;7.53;;;1.93;;
37895;SDS011;23733;53.254;10.430;2023-04-25T11:16:56;7.57;;;1.73;;
37895;SDS011;23733;53.254;10.430;2023-04-25T11:19:24;6.67;;;1.90;;
37895;SDS011;23733;53.254;10.430;2023-04-25T11:21:58;5.77;;;1.67;;
37895;SDS011;23733;53.254;10.430;2023-04-25T11:24:28;4.17;;;1.30;;
37895;SDS011;23733;53.254;10.430;2023-04-25T11:26:55;7.93;;;1.43;;
37895;SDS011;23733;53.254;10.430;2023-04-25T11:29:22;8.13;;;1.40;;
37895;SDS011;23733;53.254;10.430;2023-04-25T11:31:49;4.20;;;1.57;;
37895;SDS011;23733;53.254;10.430;2023-04-25T11:34:18;3.27;;;1.23;;
37895;SDS011;23733;53.254;10.430;2023-04-25T11:36:45;5.10;;;1.70;;
37895;SDS011;23733;53.254;10.430;2023-04-25T11:39:12;5.37;;;1.30;;
37895;SDS011;23733;53.254;10.430;2023-04-25T11:41:38;8.33;;;1.27;;
37895;SDS011;23733;53.254;10.430;2023-04-25T11:44:04;6.63;;;1.70;;
37895;SDS011;23733;53.254;10.430;2023-04-25T11:46:33;4.63;;;1.20;;
37895;SDS011;23733;53.254;10.430;2023-04-25T11:48:59;4.63;;;1.30;;
37895;SDS011;23733;53.254;10.430;2023-04-25T11:51:25;4.70;;;1.20;;
37895;SDS011;23733;53.254;10.430;2023-04-25T11:53:52;3.87;;;1.27;;
37895;SDS011;23733;53.254;10.430;2023-04-25T11:56:18;6.13;;;1.67;;
37895;SDS011;23733;53.254;10.430;2023-04-25T11:58:58;3.63;;;1.20;;
37895;SDS011;23733;53.254;10.430;2023-04-25T12:01:32;10.30;;;1.43;;
37895;SDS011;23733;53.254;10.430;2023-04-25T12:04:09;7.03;;;1.57;;
37895;SDS011;23733;53.254;10.430;2023-04-25T12:06:40;6.37;;;1.37;;
37895;SDS011;23733;53.254;10.430;2023-04-25T12:09:08;4.53;;;1.13;;
37895;SDS011;23733;53.254;10.430;2023-04-25T12:11:45;9.83;;;1.53;;
37895;SDS011;23733;53.254;10.430;2023-04-25T12:16:55;6.83;;;1.83;;
37895;SDS011;23733;53.254;10.430;2023-04-25T12:19:23;4.40;;;1.40;;
37895;SDS011;23733;53.254;10.430;2023-04-25T12:21:49;4.40;;;1.27;;
37895;SDS011;23733;53.254;10.430;2023-04-25T12:24:17;6.97;;;1.33;;
37895;SDS011;23733;53.254;10.430;2023-04-25T12:26:53;4.30;;;1.47;;
37895;SDS011;23733;53.254;10.430;2023-04-25T12:29:25;8.80;;;1.57;;
37895;SDS011;23733;53.254;10.430;2023-04-25T12:31:53;5.03;;;1.47;;
37895;SDS011;23733;53.254;10.430;2023-04-25T12:34:20;4.60;;;1.47;;
37895;SDS011;23733;53.254;10.430;2023-04-25T12:36:47;4.23;;;1.37;;
37895;SDS011;23733;53.254;10.430;2023-04-25T12:39:17;6.20;;;1.50;;
37895;SDS011;23733;53.254;10.430;2023-04-25T12:41:50;6.00;;;1.60;;
37895;SDS011;23733;53.254;10.430;2023-04-25T12:44:20;4.90;;;1.40;;
37895;SDS011;23733;53.254;10.430;2023-04-25T12:46:46;8.90;;;1.40;;
37895;SDS011;23733;53.254;10.430;2023-04-25T12:49:13;6.07;;;1.33;;
37895;SDS011;23733;53.254;10.430;2023-04-25T12:51:39;4.93;;;1.40;;
37895;SDS011;23733;53.254;10.430;2023-04-25T12:54:06;6.43;;;1.53;;
37895;SDS011;23733;53.254;10.430;2023-04-25T12:56:33;6.43;;;1.50;;
37895;SDS011;23733;53.254;10.430;2023-04-25T12:59:00;4.93;;;1.50;;
37895;SDS011;23733;53.254;10.430;2023-04-25T13:01:28;7.53;;;1.47;;
37895;SDS011;23733;53.254;10.430;2023-04-25T13:03:54;3.73;;;1.30;;
37895;SDS011;23733;53.254;10.430;2023-04-25T13:06:21;6.77;;;1.30;;
37895;SDS011;23733;53.254;10.430;2023-04-25T13:08:47;4.40;;;1.30;;
37895;SDS011;23733;53.254;10.430;2023-04-25T13:11:14;5.33;;;1.30;;
37895;SDS011;23733;53.254;10.430;2023-04-25T13:13:43;5.13;;;1.57;;
37895;SDS011;23733;53.254;10.430;2023-04-25T13:16:09;9.23;;;1.70;;
37895;SDS011;23733;53.254;10.430;2023-04-25T13:18:36;5.63;;;1.43;;
37895;SDS011;23733;53.254;10.430;2023-04-25T13:21:02;6.03;;;1.37;;
37895;SDS011;23733;53.254;10.430;2023-04-25T13:23:28;5.67;;;1.50;;
37895;SDS011;23733;53.254;10.430;2023-04-25T13:25:55;8.97;;;1.43;;
37895;SDS011;23733;53.254;10.430;2023-04-25T13:28:23;8.90;;;1.60;;
37895;SDS011;23733;53.254;10.430;2023-04-25T13:30:50;5.33;;;1.50;;
37895;SDS011;23733;53.254;10.430;2023-04-25T13:33:17;4.37;;;1.07;;
37895;SDS011;23733;53.254;10.430;2023-04-25T13:35:43;5.47;;;1.10;;
37895;SDS011;23733;53.254;10.430;2023-04-25T13:38:12;3.77;;;1.10;;
37895;SDS011;23733;53.254;10.430;2023-04-25T13:40:39;3.83;;;1.30;;
37895;SDS011;23733;53.254;10.430;2023-04-25T13:43:05;4.50;;;1.10;;
37895;SDS011;23733;53.254;10.430;2023-04-25T13:45:32;3.77;;;1.10;;
37895;SDS011;23733;53.254;10.430;2023-04-25T13:47:58;3.17;;;1.13;;
37895;SDS011;23733;53.254;10.430;2023-04-25T13:50:24;4.93;;;1.13;;
37895;SDS011;23733;53.254;10.430;2023-04-25T13:52:50;4.97;;;1.57;;
37895;SDS011;23733;53.254;10.430;2023-04-25T13:55:16;4.53;;;1.17;;
37895;SDS011;23733;53.254;10.430;2023-04-25T13:57:42;3.50;;;1.20;;
37895;SDS011;23733;53.254;10.430;2023-04-25T14:00:09;3.63;;;1.40;;
37895;SDS011;23733;53.254;10.430;2023-04-25T14:02:35;6.70;;;1.40;;
37895;SDS011;23733;53.254;10.430;2023-04-25T14:05:02;8.43;;;2.00;;
37895;SDS011;23733;53.254;10.430;2023-04-25T14:07:29;7.37;;;1.50;;
37895;SDS011;23733;53.254;10.430;2023-04-25T14:09:55;4.87;;;1.60;;
37895;SDS011;23733;53.254;10.430;2023-04-25T14:12:22;8.07;;;1.60;;
37895;SDS011;23733;53.254;10.430;2023-04-25T14:14:49;6.13;;;1.50;;
37895;SDS011;23733;53.254;10.430;2023-04-25T14:17:15;5.20;;;1.30;;
37895;SDS011;23733;53.254;10.430;2023-04-25T14:19:41;4.60;;;1.50;;
37895;SDS011;23733;53.254;10.430;2023-04-25T14:22:11;5.03;;;1.43;;
37895;SDS011;23733;53.254;10.430;2023-04-25T14:24:37;6.23;;;1.70;;
37895;SDS011;23733;53.254;10.430;2023-04-25T14:27:03;5.70;;;1.43;;
37895;SDS011;23733;53.254;10.430;2023-04-25T14:29:29;6.50;;;1.70;;
37895;SDS011;23733;53.254;10.430;2023-04-25T14:31:56;12.63;;;2.00;;
37895;SDS011;23733;53.254;10.430;2023-04-25T14:34:23;11.57;;;2.20;;
37895;SDS011;23733;53.254;10.430;2023-04-25T14:36:49;8.57;;;1.60;;
37895;SDS011;23733;53.254;10.430;2023-04-25T14:39:15;9.97;;;1.77;;